sensor_id;sensor_type;location;lat;lon;timestamp;P1;P4;P2;P0;N10;N4;N25;N1;N05;TS
79466;SPS30;68933;49.726;9.226;2023-07-13T00:00:28;2;;2;1.9;;;;;;
79466;SPS30;68933;49.726;9.226;2023-07-13T00:02:40;1.8;;1.8;1.7;;;;;;
79466;SPS30;68933;49.726;9.226;2023-07-13T00:04:54;1.8;;1.8;1.7;;;;;;
79466;SPS30;68933;49.726;9.226;2023-07-13T00:07:07;1.8;;1.8;1.7;;;;;;
79466;SPS30;68933;49.726;9.226;2023-07-13T00:09:20;1.7;;1.7;1.6;;;;;;
79466;SPS30;68933;49.726;9.226;2023-07-13T00:11:33;1.7;;1.7;1.6;;;;;;
79466;SPS30;68933;49.726;9.226;2023-07-13T00:13:45;1.8;;1.8;1.7;;;;;;
79466;SPS30;68933;49.726;9.226;2023-07-13T00:15:59;1.8;;1.8;1.7;;;;;;
79466;SPS30;68933;49.726;9.226;2023-07-13T00:18:11;1.8;;1.8;1.7;;;;;;
79466;SPS30;68933;49.726;9.226;2023-07-13T00:20:25;1.6;;1.6;1.5;;;;;;
79466;SPS30;68933;49.726;9.226;2023-07-13T00:22:38;1.6;;1.6;1.5;;;;;;
79466;SPS30;68933;49.726;9.226;2023-07-13T00:24:50;1.6;;1.6;1.5;;;;;;
79466;SPS30;68933;49.726;9.226;2023-07-13T00:27:04;1.6;;1.6;1.5;;;;;;
79466;SPS30;68933;49.726;9.226;2023-07-13T00:29:17;1.6;;1.6;1.5;;;;;;
79466;SPS30;68933;49.726;9.226;2023-07-13T00:31:30;1.5;;1.5;1.4;;;;;;
79466;SPS30;68933;49.726;9.226;2023-07-13T00:33:43;1.5;;1.5;1.4;;;;;;
79466;SPS30;68933;49.726;9.226;2023-07-13T00:35:56;2.1;;2.1;2;;;;;;
79466;SPS30;68933;49.726;9.226;2023-07-13T00:38:08;2.1;;2.1;2;;;;;;
79466;SPS30;68933;49.726;9.226;2023-07-13T00:40:22;2.1;;2.1;2;;;;;;
79466;SPS30;68933;49.726;9.226;2023-07-13T00:42:34;1.2;;1.2;1.2;;;;;;
79466;SPS30;68933;49.726;9.226;2023-07-13T00:45:04;1.2;;1.2;1.2;;;;;;
79466;SPS30;68933;49.726;9.226;2023-07-13T00:47:01;1.7;;1.7;1.7;;;;;;
79466;SPS30;68933;49.726;9.226;2023-07-13T00:49:15;1.7;;1.7;1.7;;;;;;
79466;SPS30;68933;49.726;9.226;2023-07-13T00:51:30;1.6;;1.6;1.5;;;;;;
79466;SPS30;68933;49.726;9.226;2023-07-13T00:53:40;1.6;;1.6;1.5;;;;;;
79466;SPS30;68933;49.726;9.226;2023-07-13T00:55:53;1.6;;1.6;1.5;;;;;;
79466;SPS30;68933;49.726;9.226;2023-07-13T00:58:06;1.7;;1.7;1.6;;;;;;
79466;SPS30;68933;49.726;9.226;2023-07-13T01:00:18;1.7;;1.7;1.6;;;;;;
79466;SPS30;68933;49.726;9.226;2023-07-13T01:02:32;1.6;;1.6;1.5;;;;;;
79466;SPS30;68933;49.726;9.226;2023-07-13T01:04:44;1.6;;1.6;1.5;;;;;;
79466;SPS30;68933;49.726;9.226;2023-07-13T01:06:58;1.7;;1.7;1.7;;;;;;
79466;SPS30;68933;49.726;9.226;2023-07-13T01:09:11;1.7;;1.7;1.7;;;;;;
79466;SPS30;68933;49.726;9.226;2023-07-13T01:11:23;1.7;;1.7;1.7;;;;;;
79466;SPS30;68933;49.726;9.226;2023-07-13T01:13:37;2.2;;2.2;2.1;;;;;;
79466;SPS30;68933;49.726;9.226;2023-07-13T01:15:50;2.2;;2.2;2.1;;;;;;
79466;SPS30;68933;49.726;9.226;2023-07-13T01:18:03;2.3;;2.3;2.2;;;;;;
79466;SPS30;68933;49.726;9.226;2023-07-13T01:20:16;2.3;;2.3;2.2;;;;;;
79466;SPS30;68933;49.726;9.226;2023-07-13T01:22:29;1.9;;1.9;1.8;;;;;;
79466;SPS30;68933;49.726;9.226;2023-07-13T01:24:43;1.9;;1.9;1.8;;;;;;
79466;SPS30;68933;49.726;9.226;2023-07-13T01:26:55;1.9;;1.9;1.8;;;;;;
79466;SPS30;68933;49.726;9.226;2023-07-13T01:29:08;1.9;;1.9;1.8;;;;;;
79466;SPS30;68933;49.726;9.226;2023-07-13T01:31:20;1.9;;1.9;1.8;;;;;;
79466;SPS30;68933;49.726;9.226;2023-07-13T01:33:34;2;;2;1.9;;;;;;
79466;SPS30;68933;49.726;9.226;2023-07-13T01:35:47;2;;2;1.9;;;;;;
79466;SPS30;68933;49.726;9.226;2023-07-13T01:38:00;1.8;;1.8;1.7;;;;;;
79466;SPS30;68933;49.726;9.226;2023-07-13T01:40:13;1.8;;1.8;1.7;;;;;;
79466;SPS30;68933;49.726;9.226;2023-07-13T01:42:25;1.8;;1.8;1.7;;;;;;
79466;SPS30;68933;49.726;9.226;2023-07-13T01:44:38;1.5;;1.5;1.4;;;;;;
79466;SPS30;68933;49.726;9.226;2023-07-13T01:46:52;1.5;;1.5;1.4;;;;;;
79466;SPS30;68933;49.726;9.226;2023-07-13T01:49:04;1.7;;1.7;1.7;;;;;;
79466;SPS30;68933;49.726;9.226;2023-07-13T01:51:18;1.7;;1.7;1.7;;;;;;
79466;SPS30;68933;49.726;9.226;2023-07-13T01:53:31;2.1;;2.1;2;;;;;;
79466;SPS30;68933;49.726;9.226;2023-07-13T01:55:44;2.1;;2.1;2;;;;;;
79466;SPS30;68933;49.726;9.226;2023-07-13T01:57:57;2.1;;2.1;2;;;;;;
79466;SPS30;68933;49.726;9.226;2023-07-13T02:00:10;1.6;;1.6;1.6;;;;;;
79466;SPS30;68933;49.726;9.226;2023-07-13T02:02:23;1.6;;1.6;1.6;;;;;;
79466;SPS30;68933;49.726;9.226;2023-07-13T02:04:36;1.8;;1.8;1.7;;;;;;
79466;SPS30;68933;49.726;9.226;2023-07-13T02:06:49;1.8;;1.8;1.7;;;;;;
79466;SPS30;68933;49.726;9.226;2023-07-13T02:09:02;1.5;;1.5;1.5;;;;;;
79466;SPS30;68933;49.726;9.226;2023-07-13T02:11:15;1.5;;1.5;1.5;;;;;;
79466;SPS30;68933;49.726;9.226;2023-07-13T02:13:27;2;;2;1.9;;;;;;
79466;SPS30;68933;49.726;9.226;2023-07-13T02:15:41;2;;2;1.9;;;;;;
79466;SPS30;68933;49.726;9.226;2023-07-13T02:17:54;1.6;;1.6;1.5;;;;;;
79466;SPS30;68933;49.726;9.226;2023-07-13T02:20:07;1.6;;1.6;1.5;;;;;;
79466;SPS30;68933;49.726;9.226;2023-07-13T02:22:20;1.6;;1.6;1.5;;;;;;
79466;SPS30;68933;49.726;9.226;2023-07-13T02:24:33;1.9;;1.9;1.8;;;;;;
79466;SPS30;68933;49.726;9.226;2023-07-13T02:26:46;1.9;;1.9;1.8;;;;;;
79466;SPS30;68933;49.726;9.226;2023-07-13T02:28:58;2.3;;2.3;2.2;;;;;;
79466;SPS30;68933;49.726;9.226;2023-07-13T02:31:12;2.3;;2.3;2.2;;;;;;
79466;SPS30;68933;49.726;9.226;2023-07-13T02:33:24;2.2;;2.2;2.1;;;;;;
79466;SPS30;68933;49.726;9.226;2023-07-13T02:35:38;2.2;;2.2;2.1;;;;;;
79466;SPS30;68933;49.726;9.226;2023-07-13T02:37:51;4.4;;4.4;4.2;;;;;;
79466;SPS30;68933;49.726;9.226;2023-07-13T02:40:04;4.4;;4.4;4.2;;;;;;
79466;SPS30;68933;49.726;9.226;2023-07-13T02:42:17;4.4;;4.4;4.2;;;;;;
79466;SPS30;68933;49.726;9.226;2023-07-13T02:44:30;2.8;;2.8;2.6;;;;;;
79466;SPS30;68933;49.726;9.226;2023-07-13T02:46:43;2.8;;2.8;2.6;;;;;;
79466;SPS30;68933;49.726;9.226;2023-07-13T02:48:55;3;;3;2.8;;;;;;
79466;SPS30;68933;49.726;9.226;2023-07-13T02:51:09;3;;3;2.8;;;;;;
79466;SPS30;68933;49.726;9.226;2023-07-13T02:53:21;2.4;;2.4;2.3;;;;;;
79466;SPS30;68933;49.726;9.226;2023-07-13T02:55:35;2.4;;2.4;2.3;;;;;;
79466;SPS30;68933;49.726;9.226;2023-07-13T02:57:48;2.4;;2.4;2.3;;;;;;
79466;SPS30;68933;49.726;9.226;2023-07-13T03:00:01;2.4;;2.4;2.3;;;;;;
79466;SPS30;68933;49.726;9.226;2023-07-13T03:02:13;2;;2;1.9;;;;;;
79466;SPS30;68933;49.726;9.226;2023-07-13T03:04:26;2;;2;1.9;;;;;;
79466;SPS30;68933;49.726;9.226;2023-07-13T03:06:39;2.5;;2.5;2.3;;;;;;
79466;SPS30;68933;49.726;9.226;2023-07-13T03:08:52;2.5;;2.5;2.3;;;;;;
79466;SPS30;68933;49.726;9.226;2023-07-13T03:11:06;2.5;;2.5;2.3;;;;;;
79466;SPS30;68933;49.726;9.226;2023-07-13T03:13:18;2.8;;2.8;2.7;;;;;;
79466;SPS30;68933;49.726;9.226;2023-07-13T03:15:32;2.8;;2.8;2.7;;;;;;
79466;SPS30;68933;49.726;9.226;2023-07-13T03:17:45;1.8;;1.8;1.7;;;;;;
79466;SPS30;68933;49.726;9.226;2023-07-13T03:19:57;1.8;;1.8;1.7;;;;;;
79466;SPS30;68933;49.726;9.226;2023-07-13T03:22:11;1.8;;1.8;1.7;;;;;;
79466;SPS30;68933;49.726;9.226;2023-07-13T03:24:24;2.3;;2.3;2.2;;;;;;
79466;SPS30;68933;49.726;9.226;2023-07-13T03:26:37;2.3;;2.3;2.2;;;;;;
79466;SPS30;68933;49.726;9.226;2023-07-13T03:28:50;1.9;;1.9;1.8;;;;;;
79466;SPS30;68933;49.726;9.226;2023-07-13T03:31:03;1.9;;1.9;1.8;;;;;;
79466;SPS30;68933;49.726;9.226;2023-07-13T03:33:15;1.9;;1.9;1.8;;;;;;
79466;SPS30;68933;49.726;9.226;2023-07-13T03:35:28;1.9;;1.9;1.8;;;;;;
79466;SPS30;68933;49.726;9.226;2023-07-13T03:37:42;1.9;;1.9;1.8;;;;;;
79466;SPS30;68933;49.726;9.226;2023-07-13T03:39:54;2.1;;2.1;2;;;;;;
79466;SPS30;68933;49.726;9.226;2023-07-13T03:42:08;2.1;;2.1;2;;;;;;
79466;SPS30;68933;49.726;9.226;2023-07-13T03:44:21;2.5;;2.5;2.4;;;;;;
79466;SPS30;68933;49.726;9.226;2023-07-13T03:46:33;2.5;;2.5;2.4;;;;;;
79466;SPS30;68933;49.726;9.226;2023-07-13T03:48:47;2.5;;2.5;2.4;;;;;;
79466;SPS30;68933;49.726;9.226;2023-07-13T03:51:00;3.9;;3.9;3.7;;;;;;
79466;SPS30;68933;49.726;9.226;2023-07-13T03:53:12;3.9;;3.9;3.7;;;;;;
79466;SPS30;68933;49.726;9.226;2023-07-13T03:55:25;4.1;;4.1;3.9;;;;;;
79466;SPS30;68933;49.726;9.226;2023-07-13T03:57:39;4.1;;4.1;3.9;;;;;;
79466;SPS30;68933;49.726;9.226;2023-07-13T03:59:51;4.1;;4.1;3.9;;;;;;
79466;SPS30;68933;49.726;9.226;2023-07-13T04:02:05;2.3;;2.3;2.2;;;;;;
79466;SPS30;68933;49.726;9.226;2023-07-13T04:04:17;2.3;;2.3;2.2;;;;;;
79466;SPS30;68933;49.726;9.226;2023-07-13T04:06:32;2.4;;2.4;2.3;;;;;;
79466;SPS30;68933;49.726;9.226;2023-07-13T04:08:44;2.4;;2.4;2.3;;;;;;
79466;SPS30;68933;49.726;9.226;2023-07-13T04:10:57;3.7;;3.7;3.6;;;;;;
79466;SPS30;68933;49.726;9.226;2023-07-13T04:13:10;3.7;;3.7;3.6;;;;;;
79466;SPS30;68933;49.726;9.226;2023-07-13T04:15:23;3.7;;3.7;3.6;;;;;;
79466;SPS30;68933;49.726;9.226;2023-07-13T04:17:36;2.3;;2.3;2.2;;;;;;
79466;SPS30;68933;49.726;9.226;2023-07-13T04:19:49;2.3;;2.3;2.2;;;;;;
79466;SPS30;68933;49.726;9.226;2023-07-13T04:22:02;2.5;;2.5;2.4;;;;;;
79466;SPS30;68933;49.726;9.226;2023-07-13T04:24:14;2.5;;2.5;2.4;;;;;;
79466;SPS30;68933;49.726;9.226;2023-07-13T04:26:28;3.2;;3.2;3;;;;;;
79466;SPS30;68933;49.726;9.226;2023-07-13T04:28:41;3.2;;3.2;3;;;;;;
79466;SPS30;68933;49.726;9.226;2023-07-13T04:30:54;3.2;;3.2;3;;;;;;
79466;SPS30;68933;49.726;9.226;2023-07-13T04:33:07;2.3;;2.3;2.2;;;;;;
79466;SPS30;68933;49.726;9.226;2023-07-13T04:35:20;2.3;;2.3;2.2;;;;;;
79466;SPS30;68933;49.726;9.226;2023-07-13T04:37:33;2.2;;2.2;2.1;;;;;;
79466;SPS30;68933;49.726;9.226;2023-07-13T04:39:45;2.2;;2.2;2.1;;;;;;
79466;SPS30;68933;49.726;9.226;2023-07-13T04:41:58;2.3;;2.3;2.2;;;;;;
79466;SPS30;68933;49.726;9.226;2023-07-13T04:44:12;2.3;;2.3;2.2;;;;;;
79466;SPS30;68933;49.726;9.226;2023-07-13T04:46:25;2.3;;2.3;2.2;;;;;;
79466;SPS30;68933;49.726;9.226;2023-07-13T04:48:38;2.5;;2.5;2.3;;;;;;
79466;SPS30;68933;49.726;9.226;2023-07-13T04:50:54;2.5;;2.5;2.3;;;;;;
79466;SPS30;68933;49.726;9.226;2023-07-13T04:53:04;2.5;;2.5;2.4;;;;;;
79466;SPS30;68933;49.726;9.226;2023-07-13T04:55:17;2.5;;2.5;2.4;;;;;;
79466;SPS30;68933;49.726;9.226;2023-07-13T04:57:30;2.4;;2.4;2.3;;;;;;
79466;SPS30;68933;49.726;9.226;2023-07-13T04:59:43;2.4;;2.4;2.3;;;;;;
79466;SPS30;68933;49.726;9.226;2023-07-13T05:01:56;2.4;;2.4;2.3;;;;;;
79466;SPS30;68933;49.726;9.226;2023-07-13T05:04:09;2.4;;2.4;2.3;;;;;;
79466;SPS30;68933;49.726;9.226;2023-07-13T05:06:22;2.4;;2.4;2.3;;;;;;
79466;SPS30;68933;49.726;9.226;2023-07-13T05:08:35;2.3;;2.3;2.2;;;;;;
79466;SPS30;68933;49.726;9.226;2023-07-13T05:10:48;2.3;;2.3;2.2;;;;;;
79466;SPS30;68933;49.726;9.226;2023-07-13T05:13:00;2.3;;2.3;2.2;;;;;;
79466;SPS30;68933;49.726;9.226;2023-07-13T05:15:14;2.3;;2.3;2.2;;;;;;
79466;SPS30;68933;49.726;9.226;2023-07-13T05:17:27;2.4;;2.4;2.3;;;;;;
79466;SPS30;68933;49.726;9.226;2023-07-13T05:19:40;2.4;;2.4;2.3;;;;;;
79466;SPS30;68933;49.726;9.226;2023-07-13T05:21:52;3.6;;3.6;3.4;;;;;;
79466;SPS30;68933;49.726;9.226;2023-07-13T05:24:06;3.6;;3.6;3.4;;;;;;
79466;SPS30;68933;49.726;9.226;2023-07-13T05:26:19;4.1;;4.1;3.9;;;;;;
79466;SPS30;68933;49.726;9.226;2023-07-13T05:28:32;4.1;;4.1;3.9;;;;;;
79466;SPS30;68933;49.726;9.226;2023-07-13T05:30:45;4.1;;4.1;3.9;;;;;;
79466;SPS30;68933;49.726;9.226;2023-07-13T05:32:58;3.9;;3.9;3.8;;;;;;
79466;SPS30;68933;49.726;9.226;2023-07-13T05:35:11;3.9;;3.9;3.8;;;;;;
79466;SPS30;68933;49.726;9.226;2023-07-13T05:37:24;3.6;;3.6;3.5;;;;;;
79466;SPS30;68933;49.726;9.226;2023-07-13T05:39:37;3.6;;3.6;3.5;;;;;;
79466;SPS30;68933;49.726;9.226;2023-07-13T05:41:50;4.6;;4.6;4.4;;;;;;
79466;SPS30;68933;49.726;9.226;2023-07-13T05:44:03;4.6;;4.6;4.4;;;;;;
79466;SPS30;68933;49.726;9.226;2023-07-13T05:46:16;5.7;;5.7;5.4;;;;;;
79466;SPS30;68933;49.726;9.226;2023-07-13T05:48:29;5.7;;5.7;5.4;;;;;;
79466;SPS30;68933;49.726;9.226;2023-07-13T05:50:41;4.4;;4.4;4.2;;;;;;
79466;SPS30;68933;49.726;9.226;2023-07-13T05:52:55;4.4;;4.4;4.2;;;;;;
79466;SPS30;68933;49.726;9.226;2023-07-13T05:55:08;4.4;;4.4;4.2;;;;;;
79466;SPS30;68933;49.726;9.226;2023-07-13T05:57:21;4.4;;4.4;4.2;;;;;;
79466;SPS30;68933;49.726;9.226;2023-07-13T05:59:34;4.4;;4.4;4.2;;;;;;
79466;SPS30;68933;49.726;9.226;2023-07-13T06:01:47;4.2;;4.2;4;;;;;;
79466;SPS30;68933;49.726;9.226;2023-07-13T06:04:00;4.2;;4.2;4;;;;;;
79466;SPS30;68933;49.726;9.226;2023-07-13T06:06:13;3.8;;3.8;3.6;;;;;;
79466;SPS30;68933;49.726;9.226;2023-07-13T06:08:26;3.8;;3.8;3.6;;;;;;
79466;SPS30;68933;49.726;9.226;2023-07-13T06:10:39;3.8;;3.8;3.6;;;;;;
79466;SPS30;68933;49.726;9.226;2023-07-13T06:12:52;3.2;;3.2;3.1;;;;;;
79466;SPS30;68933;49.726;9.226;2023-07-13T06:15:05;3.2;;3.2;3.1;;;;;;
79466;SPS30;68933;49.726;9.226;2023-07-13T06:17:18;2.9;;2.9;2.7;;;;;;
79466;SPS30;68933;49.726;9.226;2023-07-13T06:19:31;2.9;;2.9;2.7;;;;;;
79466;SPS30;68933;49.726;9.226;2023-07-13T06:21:44;2.9;;2.9;2.7;;;;;;
79466;SPS30;68933;49.726;9.226;2023-07-13T06:23:57;2.7;;2.7;2.6;;;;;;
79466;SPS30;68933;49.726;9.226;2023-07-13T06:26:10;2.7;;2.7;2.6;;;;;;
79466;SPS30;68933;49.726;9.226;2023-07-13T06:28:23;3;;3;2.8;;;;;;
79466;SPS30;68933;49.726;9.226;2023-07-13T06:30:37;3;;3;2.8;;;;;;
79466;SPS30;68933;49.726;9.226;2023-07-13T06:32:49;2.3;;2.3;2.2;;;;;;
79466;SPS30;68933;49.726;9.226;2023-07-13T06:35:02;2.3;;2.3;2.2;;;;;;
79466;SPS30;68933;49.726;9.226;2023-07-13T06:37:14;2.3;;2.3;2.2;;;;;;
79466;SPS30;68933;49.726;9.226;2023-07-13T06:39:28;3.6;;3.6;3.4;;;;;;
79466;SPS30;68933;49.726;9.226;2023-07-13T06:41:41;3.6;;3.6;3.4;;;;;;
79466;SPS30;68933;49.726;9.226;2023-07-13T06:43:54;1.6;;1.6;1.5;;;;;;
79466;SPS30;68933;49.726;9.226;2023-07-13T06:46:07;1.6;;1.6;1.5;;;;;;
79466;SPS30;68933;49.726;9.226;2023-07-13T06:48:20;1.6;;1.6;1.5;;;;;;
79466;SPS30;68933;49.726;9.226;2023-07-13T06:50:33;1.8;;1.7;1.6;;;;;;
79466;SPS30;68933;49.726;9.226;2023-07-13T06:52:46;1.8;;1.7;1.6;;;;;;
79466;SPS30;68933;49.726;9.226;2023-07-13T06:54:58;1.7;;1.7;1.6;;;;;;
79466;SPS30;68933;49.726;9.226;2023-07-13T06:57:12;1.7;;1.7;1.6;;;;;;
79466;SPS30;68933;49.726;9.226;2023-07-13T06:59:25;1.7;;1.7;1.6;;;;;;
79466;SPS30;68933;49.726;9.226;2023-07-13T07:01:38;1;;1;0.9;;;;;;
79466;SPS30;68933;49.726;9.226;2023-07-13T07:03:51;1;;1;0.9;;;;;;
79466;SPS30;68933;49.726;9.226;2023-07-13T07:06:07;1.5;;1.5;1.4;;;;;;
79466;SPS30;68933;49.726;9.226;2023-07-13T07:08:17;1.5;;1.5;1.4;;;;;;
79466;SPS30;68933;49.726;9.226;2023-07-13T07:10:30;1.9;;1.9;1.7;;;;;;
79466;SPS30;68933;49.726;9.226;2023-07-13T07:12:43;1.9;;1.9;1.7;;;;;;
79466;SPS30;68933;49.726;9.226;2023-07-13T07:14:55;1.9;;1.9;1.7;;;;;;
79466;SPS30;68933;49.726;9.226;2023-07-13T07:17:09;1.6;;1.5;1.4;;;;;;
79466;SPS30;68933;49.726;9.226;2023-07-13T07:19:22;1.6;;1.5;1.4;;;;;;
79466;SPS30;68933;49.726;9.226;2023-07-13T07:21:35;1.5;;1.5;1.4;;;;;;
79466;SPS30;68933;49.726;9.226;2023-07-13T07:23:48;1.5;;1.5;1.4;;;;;;
79466;SPS30;68933;49.726;9.226;2023-07-13T07:26:01;1.8;;1.7;1.6;;;;;;
79466;SPS30;68933;49.726;9.226;2023-07-13T07:28:15;1.8;;1.7;1.6;;;;;;
79466;SPS30;68933;49.726;9.226;2023-07-13T07:30:27;1.8;;1.7;1.6;;;;;;
79466;SPS30;68933;49.726;9.226;2023-07-13T07:32:39;1.5;;1.5;1.4;;;;;;
79466;SPS30;68933;49.726;9.226;2023-07-13T07:34:53;1.5;;1.5;1.4;;;;;;
79466;SPS30;68933;49.726;9.226;2023-07-13T07:37:06;1.9;;1.8;1.7;;;;;;
79466;SPS30;68933;49.726;9.226;2023-07-13T07:39:19;1.9;;1.8;1.7;;;;;;
79466;SPS30;68933;49.726;9.226;2023-07-13T07:41:31;1.6;;1.6;1.5;;;;;;
79466;SPS30;68933;49.726;9.226;2023-07-13T07:43:45;1.6;;1.6;1.5;;;;;;
79466;SPS30;68933;49.726;9.226;2023-07-13T07:45:58;1.4;;1.4;1.4;;;;;;
79466;SPS30;68933;49.726;9.226;2023-07-13T07:48:11;1.4;;1.4;1.4;;;;;;
79466;SPS30;68933;49.726;9.226;2023-07-13T07:50:24;1.4;;1.4;1.4;;;;;;
79466;SPS30;68933;49.726;9.226;2023-07-13T07:52:37;1.5;;1.5;1.4;;;;;;
79466;SPS30;68933;49.726;9.226;2023-07-13T07:54:50;1.5;;1.5;1.4;;;;;;
79466;SPS30;68933;49.726;9.226;2023-07-13T07:57:03;1.2;;1.2;1.1;;;;;;
79466;SPS30;68933;49.726;9.226;2023-07-13T07:59:16;1.2;;1.2;1.1;;;;;;
79466;SPS30;68933;49.726;9.226;2023-07-13T08:01:29;1.6;;1.6;1.5;;;;;;
79466;SPS30;68933;49.726;9.226;2023-07-13T08:03:41;1.6;;1.6;1.5;;;;;;
79466;SPS30;68933;49.726;9.226;2023-07-13T08:05:55;1.2;;1.2;1.2;;;;;;
79466;SPS30;68933;49.726;9.226;2023-07-13T08:08:07;1.2;;1.2;1.2;;;;;;
79466;SPS30;68933;49.726;9.226;2023-07-13T08:10:21;1.2;;1.2;1.2;;;;;;
79466;SPS30;68933;49.726;9.226;2023-07-13T08:12:34;1.6;;1.6;1.5;;;;;;
79466;SPS30;68933;49.726;9.226;2023-07-13T08:14:49;1.6;;1.6;1.5;;;;;;
79466;SPS30;68933;49.726;9.226;2023-07-13T08:17:00;1.6;;1.5;1.4;;;;;;
79466;SPS30;68933;49.726;9.226;2023-07-13T08:19:13;1.6;;1.5;1.4;;;;;;
79466;SPS30;68933;49.726;9.226;2023-07-13T08:21:26;1.1;;1.1;1.1;;;;;;
79466;SPS30;68933;49.726;9.226;2023-07-13T08:23:39;1.1;;1.1;1.1;;;;;;
79466;SPS30;68933;49.726;9.226;2023-07-13T08:25:52;1.2;;1.2;1.1;;;;;;
79466;SPS30;68933;49.726;9.226;2023-07-13T08:28:05;1.2;;1.2;1.1;;;;;;
79466;SPS30;68933;49.726;9.226;2023-07-13T08:30:18;1.2;;1.2;1.1;;;;;;
79466;SPS30;68933;49.726;9.226;2023-07-13T08:32:31;1.4;;1.4;1.3;;;;;;
79466;SPS30;68933;49.726;9.226;2023-07-13T08:34:44;1.4;;1.4;1.3;;;;;;
79466;SPS30;68933;49.726;9.226;2023-07-13T08:36:57;1.4;;1.4;1.4;;;;;;
79466;SPS30;68933;49.726;9.226;2023-07-13T08:39:10;1.4;;1.4;1.4;;;;;;
79466;SPS30;68933;49.726;9.226;2023-07-13T08:41:23;2;;2;1.9;;;;;;
79466;SPS30;68933;49.726;9.226;2023-07-13T08:43:36;2;;2;1.9;;;;;;
79466;SPS30;68933;49.726;9.226;2023-07-13T08:45:49;1.6;;1.6;1.5;;;;;;
79466;SPS30;68933;49.726;9.226;2023-07-13T08:48:03;1.6;;1.6;1.5;;;;;;
79466;SPS30;68933;49.726;9.226;2023-07-13T08:50:16;1.6;;1.6;1.5;;;;;;
79466;SPS30;68933;49.726;9.226;2023-07-13T08:52:29;2.6;;2.6;2.4;;;;;;
79466;SPS30;68933;49.726;9.226;2023-07-13T08:54:41;2.6;;2.6;2.4;;;;;;
79466;SPS30;68933;49.726;9.226;2023-07-13T08:56:54;1.4;;1.4;1.3;;;;;;
79466;SPS30;68933;49.726;9.226;2023-07-13T08:59:09;1.4;;1.4;1.3;;;;;;
79466;SPS30;68933;49.726;9.226;2023-07-13T09:01:20;1.4;;1.4;1.3;;;;;;
79466;SPS30;68933;49.726;9.226;2023-07-13T09:03:35;1.4;;1.4;1.3;;;;;;
79466;SPS30;68933;49.726;9.226;2023-07-13T09:05:47;2.5;;2.5;2.3;;;;;;
79466;SPS30;68933;49.726;9.226;2023-07-13T09:08:04;2.5;;2.5;2.3;;;;;;
79466;SPS30;68933;49.726;9.226;2023-07-13T09:10:14;1.4;;1.4;1.3;;;;;;
79466;SPS30;68933;49.726;9.226;2023-07-13T09:12:27;1.4;;1.4;1.3;;;;;;
79466;SPS30;68933;49.726;9.226;2023-07-13T09:14:40;1.5;;1.4;1.3;;;;;;
79466;SPS30;68933;49.726;9.226;2023-07-13T09:16:50;1.5;;1.4;1.3;;;;;;
79466;SPS30;68933;49.726;9.226;2023-07-13T09:19:04;1.5;;1.4;1.3;;;;;;
79466;SPS30;68933;49.726;9.226;2023-07-13T09:21:17;1.5;;1.5;1.5;;;;;;
79466;SPS30;68933;49.726;9.226;2023-07-13T09:23:30;1.5;;1.5;1.5;;;;;;
79466;SPS30;68933;49.726;9.226;2023-07-13T09:25:43;1.5;;1.5;1.5;;;;;;
79466;SPS30;68933;49.726;9.226;2023-07-13T09:27:56;1.7;;1.7;1.6;;;;;;
79466;SPS30;68933;49.726;9.226;2023-07-13T09:30:17;1.7;;1.7;1.6;;;;;;
79466;SPS30;68933;49.726;9.226;2023-07-13T09:32:22;1.8;;1.8;1.7;;;;;;
79466;SPS30;68933;49.726;9.226;2023-07-13T09:34:34;1.8;;1.8;1.7;;;;;;
79466;SPS30;68933;49.726;9.226;2023-07-13T09:36:47;2;;2;1.9;;;;;;
79466;SPS30;68933;49.726;9.226;2023-07-13T09:39:02;2;;2;1.9;;;;;;
79466;SPS30;68933;49.726;9.226;2023-07-13T09:41:15;2;;2;1.9;;;;;;
79466;SPS30;68933;49.726;9.226;2023-07-13T09:43:27;2.1;;2.1;2;;;;;;
79466;SPS30;68933;49.726;9.226;2023-07-13T09:45:39;2.1;;2.1;2;;;;;;
79466;SPS30;68933;49.726;9.226;2023-07-13T09:47:58;1.9;;1.9;1.8;;;;;;
79466;SPS30;68933;49.726;9.226;2023-07-13T09:50:06;1.9;;1.9;1.8;;;;;;
79466;SPS30;68933;49.726;9.226;2023-07-13T09:52:19;1.9;;1.9;1.8;;;;;;
79466;SPS30;68933;49.726;9.226;2023-07-13T09:54:33;1.3;;1.3;1.2;;;;;;
79466;SPS30;68933;49.726;9.226;2023-07-13T09:56:45;1.3;;1.3;1.2;;;;;;
79466;SPS30;68933;49.726;9.226;2023-07-13T09:58:58;2.1;;2;1.9;;;;;;
79466;SPS30;68933;49.726;9.226;2023-07-13T10:01:11;2.1;;2;1.9;;;;;;
79466;SPS30;68933;49.726;9.226;2023-07-13T10:03:25;1.7;;1.6;1.5;;;;;;
79466;SPS30;68933;49.726;9.226;2023-07-13T10:05:37;1.7;;1.6;1.5;;;;;;
79466;SPS30;68933;49.726;9.226;2023-07-13T10:07:49;1.7;;1.6;1.5;;;;;;
79466;SPS30;68933;49.726;9.226;2023-07-13T10:10:03;2.3;;2.3;2.2;;;;;;
79466;SPS30;68933;49.726;9.226;2023-07-13T10:12:16;2.3;;2.3;2.2;;;;;;
79466;SPS30;68933;49.726;9.226;2023-07-13T10:14:29;2;;1.9;1.8;;;;;;
79466;SPS30;68933;49.726;9.226;2023-07-13T10:16:42;2;;1.9;1.8;;;;;;
79466;SPS30;68933;49.726;9.226;2023-07-13T10:18:56;1.9;;1.9;1.8;;;;;;
79466;SPS30;68933;49.726;9.226;2023-07-13T10:21:10;1.9;;1.9;1.7;;;;;;
79466;SPS30;68933;49.726;9.226;2023-07-13T10:23:21;1.9;;1.9;1.7;;;;;;
79466;SPS30;68933;49.726;9.226;2023-07-13T10:25:34;1.8;;1.8;1.7;;;;;;
79466;SPS30;68933;49.726;9.226;2023-07-13T10:27:46;1.8;;1.8;1.7;;;;;;
79466;SPS30;68933;49.726;9.226;2023-07-13T10:30:01;2.9;;2.9;2.8;;;;;;
79466;SPS30;68933;49.726;9.226;2023-07-13T10:32:13;2.9;;2.9;2.8;;;;;;
79466;SPS30;68933;49.726;9.226;2023-07-13T10:34:26;2.9;;2.9;2.8;;;;;;
79466;SPS30;68933;49.726;9.226;2023-07-13T10:36:39;2.1;;2.1;2;;;;;;
79466;SPS30;68933;49.726;9.226;2023-07-13T10:38:51;2.1;;2.1;2;;;;;;
79466;SPS30;68933;49.726;9.226;2023-07-13T10:41:05;1.8;;1.8;1.7;;;;;;
79466;SPS30;68933;49.726;9.226;2023-07-13T10:43:18;1.8;;1.8;1.7;;;;;;
79466;SPS30;68933;49.726;9.226;2023-07-13T10:45:32;2.4;;2.4;2.2;;;;;;
79466;SPS30;68933;49.726;9.226;2023-07-13T10:47:44;2.4;;2.4;2.2;;;;;;
79466;SPS30;68933;49.726;9.226;2023-07-13T10:49:57;2.4;;2.4;2.2;;;;;;
79466;SPS30;68933;49.726;9.226;2023-07-13T10:52:35;1.7;;1.7;1.6;;;;;;
79466;SPS30;68933;49.726;9.226;2023-07-13T10:54:26;1.7;;1.7;1.6;;;;;;
79466;SPS30;68933;49.726;9.226;2023-07-13T10:56:36;1.6;;1.6;1.5;;;;;;
79466;SPS30;68933;49.726;9.226;2023-07-13T10:58:50;1.6;;1.6;1.5;;;;;;
79466;SPS30;68933;49.726;9.226;2023-07-13T11:01:03;1.6;;1.6;1.5;;;;;;
79466;SPS30;68933;49.726;9.226;2023-07-13T11:03:16;1.6;;1.6;1.5;;;;;;
79466;SPS30;68933;49.726;9.226;2023-07-13T11:05:29;1.7;;1.7;1.6;;;;;;
79466;SPS30;68933;49.726;9.226;2023-07-13T11:07:51;1.7;;1.7;1.6;;;;;;
79466;SPS30;68933;49.726;9.226;2023-07-13T11:09:54;1.7;;1.7;1.6;;;;;;
79466;SPS30;68933;49.726;9.226;2023-07-13T11:12:08;1.7;;1.6;1.5;;;;;;
79466;SPS30;68933;49.726;9.226;2023-07-13T11:14:28;1.7;;1.6;1.5;;;;;;
79466;SPS30;68933;49.726;9.226;2023-07-13T11:16:35;1.7;;1.6;1.5;;;;;;
79466;SPS30;68933;49.726;9.226;2023-07-13T11:18:46;1.7;;1.6;1.5;;;;;;
79466;SPS30;68933;49.726;9.226;2023-07-13T11:21:12;1.3;;1.3;1.3;;;;;;
79466;SPS30;68933;49.726;9.226;2023-07-13T11:23:21;1.3;;1.3;1.3;;;;;;
79466;SPS30;68933;49.726;9.226;2023-07-13T11:25:26;1.3;;1.3;1.3;;;;;;
79466;SPS30;68933;49.726;9.226;2023-07-13T11:27:39;2;;2;1.9;;;;;;
79466;SPS30;68933;49.726;9.226;2023-07-13T11:29:51;2;;2;1.9;;;;;;
79466;SPS30;68933;49.726;9.226;2023-07-13T11:32:20;1.8;;1.8;1.7;;;;;;
79466;SPS30;68933;49.726;9.226;2023-07-13T11:34:18;1.8;;1.8;1.7;;;;;;
79466;SPS30;68933;49.726;9.226;2023-07-13T11:36:31;2.5;;2.5;2.4;;;;;;
79466;SPS30;68933;49.726;9.226;2023-07-13T11:38:43;2.5;;2.5;2.4;;;;;;
79466;SPS30;68933;49.726;9.226;2023-07-13T11:40:56;1.6;;1.6;1.5;;;;;;
79466;SPS30;68933;49.726;9.226;2023-07-13T11:43:11;1.6;;1.6;1.5;;;;;;
79466;SPS30;68933;49.726;9.226;2023-07-13T11:45:22;1.6;;1.6;1.5;;;;;;
79466;SPS30;68933;49.726;9.226;2023-07-13T11:47:34;1.7;;1.7;1.6;;;;;;
79466;SPS30;68933;49.726;9.226;2023-07-13T11:49:48;1.7;;1.7;1.6;;;;;;
79466;SPS30;68933;49.726;9.226;2023-07-13T11:52:00;1.2;;1.2;1.2;;;;;;
79466;SPS30;68933;49.726;9.226;2023-07-13T11:54:17;1.2;;1.2;1.2;;;;;;
79466;SPS30;68933;49.726;9.226;2023-07-13T11:56:27;2.6;;2.6;2.5;;;;;;
79466;SPS30;68933;49.726;9.226;2023-07-13T11:58:40;2.6;;2.6;2.5;;;;;;
79466;SPS30;68933;49.726;9.226;2023-07-13T12:00:53;4;;4;3.7;;;;;;
79466;SPS30;68933;49.726;9.226;2023-07-13T12:03:05;4;;4;3.7;;;;;;
79466;SPS30;68933;49.726;9.226;2023-07-13T12:05:19;1.8;;1.8;1.7;;;;;;
79466;SPS30;68933;49.726;9.226;2023-07-13T12:07:32;1.8;;1.8;1.7;;;;;;
79466;SPS30;68933;49.726;9.226;2023-07-13T12:09:45;1.8;;1.8;1.7;;;;;;
79466;SPS30;68933;49.726;9.226;2023-07-13T12:11:58;1.7;;1.7;1.6;;;;;;
79466;SPS30;68933;49.726;9.226;2023-07-13T12:14:13;1.7;;1.7;1.6;;;;;;
79466;SPS30;68933;49.726;9.226;2023-07-13T12:16:25;2.1;;2.1;2;;;;;;
79466;SPS30;68933;49.726;9.226;2023-07-13T12:18:36;2.1;;2.1;2;;;;;;
79466;SPS30;68933;49.726;9.226;2023-07-13T12:20:50;2;;2;1.9;;;;;;
79466;SPS30;68933;49.726;9.226;2023-07-13T12:23:04;2;;2;1.9;;;;;;
79466;SPS30;68933;49.726;9.226;2023-07-13T12:25:16;1.5;;1.5;1.5;;;;;;
79466;SPS30;68933;49.726;9.226;2023-07-13T12:27:28;1.5;;1.5;1.5;;;;;;
79466;SPS30;68933;49.726;9.226;2023-07-13T12:29:48;1.5;;1.5;1.5;;;;;;
79466;SPS30;68933;49.726;9.226;2023-07-13T12:31:55;1.6;;1.6;1.5;;;;;;
79466;SPS30;68933;49.726;9.226;2023-07-13T12:34:08;1.6;;1.6;1.5;;;;;;
79466;SPS30;68933;49.726;9.226;2023-07-13T12:36:21;1.6;;1.6;1.6;;;;;;
79466;SPS30;68933;49.726;9.226;2023-07-13T12:38:33;1.6;;1.6;1.6;;;;;;